Time;durP1;ratioP1;P1;durP2;ratioP2;P2;SDS_P1;SDS_P2;PMS_P1;PMS_P2;Temp;Humidity;BMP_temperature;BMP_pressure;BME280_temperature;BME280_humidity;BME280_pressure;Samples;Min_cycle;Max_cycle;Signal;HPM_P1;HPM_P2
2024/02/17 00:01:13;;;;;;;8.20;7.23;;;10.70;99.90;;;;;;5031861;28;20732;-59
2024/02/17 00:03:42;;;;;;;11.07;8.07;;;10.70;99.90;;;;;;5033470;28;20467;-58
2024/02/17 00:06:10;;;;;;;10.80;6.90;;;10.70;99.90;;;;;;5036412;28;20500;-59
2024/02/17 00:08:38;;;;;;;10.10;7.10;;;10.70;99.90;;;;;;5036055;28;20499;-59
2024/02/17 00:11:06;;;;;;;9.47;5.63;;;10.70;99.90;;;;;;5035664;28;20487;-59
2024/02/17 00:13:35;;;;;;;7.07;5.60;;;10.70;99.90;;;;;;5035352;28;21073;-59
2024/02/17 00:16:03;;;;;;;8.57;5.93;;;10.70;99.90;;;;;;5035819;28;20483;-59
2024/02/17 00:18:31;;;;;;;8.20;5.83;;;10.70;99.90;;;;;;5034648;28;20474;-59
2024/02/17 00:21:03;;;;;;;8.07;6.50;;;10.60;99.90;;;;;;5036087;28;20467;-59
2024/02/17 00:23:31;;;;;;;7.53;6.20;;;10.50;99.90;;;;;;5035646;28;21018;-59
2024/02/17 00:25:59;;;;;;;6.77;5.90;;;10.50;99.90;;;;;;5034637;28;20478;-59
2024/02/17 00:28:28;;;;;;;9.30;6.60;;;10.40;99.90;;;;;;5035850;28;20502;-58
2024/02/17 00:30:56;;;;;;;9.13;7.20;;;10.40;99.90;;;;;;5036776;28;20518;-58
2024/02/17 00:33:24;;;;;;;8.27;6.77;;;10.40;99.90;;;;;;5036668;28;20463;-59
2024/02/17 00:35:52;;;;;;;9.83;7.00;;;10.40;99.90;;;;;;5033090;28;20505;-58
2024/02/17 00:38:22;;;;;;;11.30;7.13;;;10.30;99.90;;;;;;5033147;28;20498;-59
2024/02/17 00:40:50;;;;;;;9.63;6.73;;;10.30;99.90;;;;;;5034136;28;20854;-58
2024/02/17 00:43:18;;;;;;;11.37;7.80;;;10.20;99.90;;;;;;5030868;28;20562;-58
2024/02/17 00:45:48;;;;;;;9.37;7.13;;;10.20;99.90;;;;;;5030732;28;20503;-59
2024/02/17 00:48:17;;;;;;;8.90;6.53;;;10.20;99.90;;;;;;5033403;28;20536;-58
2024/02/17 00:50:46;;;;;;;10.13;7.17;;;10.20;99.90;;;;;;5032846;28;20922;-59
2024/02/17 00:53:26;;;;;;;8.80;6.87;;;10.20;99.90;;;;;;5036417;28;20466;-58
2024/02/17 00:55:54;;;;;;;9.90;7.17;;;10.10;99.90;;;;;;5031503;28;20645;-57
2024/02/17 00:58:22;;;;;;;11.77;8.77;;;10.10;99.90;;;;;;5025772;28;20482;-58
2024/02/17 01:00:50;;;;;;;9.80;7.23;;;10.10;99.90;;;;;;5031270;28;20943;-59
2024/02/17 01:03:18;;;;;;;9.67;7.00;;;10.10;99.90;;;;;;5033537;28;21032;-58
2024/02/17 01:05:46;;;;;;;9.33;6.77;;;10.00;99.90;;;;;;5035614;28;20525;-59
2024/02/17 01:08:14;;;;;;;8.80;6.40;;;10.00;99.90;;;;;;5032509;28;20487;-59
2024/02/17 01:10:44;;;;;;;10.40;6.30;;;9.90;99.90;;;;;;5032636;28;21070;-59
2024/02/17 01:13:12;;;;;;;9.20;6.90;;;9.90;99.90;;;;;;5031562;28;20474;-57
2024/02/17 01:15:40;;;;;;;10.93;6.80;;;9.80;99.90;;;;;;5036263;28;20475;-59
2024/02/17 01:18:09;;;;;;;10.30;6.80;;;9.80;99.90;;;;;;5034919;28;20490;-59
2024/02/17 01:20:37;;;;;;;9.40;6.63;;;9.80;99.90;;;;;;5029848;28;20553;-58
2024/02/17 01:23:05;;;;;;;9.87;7.17;;;9.70;99.90;;;;;;5033791;28;20502;-59
2024/02/17 01:25:33;;;;;;;11.77;6.90;;;9.70;99.90;;;;;;5032602;28;20506;-58
2024/02/17 01:28:02;;;;;;;10.17;7.20;;;9.70;99.90;;;;;;5033942;28;21614;-59
2024/02/17 01:30:30;;;;;;;8.30;6.03;;;9.70;99.90;;;;;;5033369;28;20510;-58
2024/02/17 01:32:58;;;;;;;8.40;6.03;;;9.70;99.90;;;;;;5031252;28;20477;-59
2024/02/17 01:35:26;;;;;;;7.10;5.37;;;9.60;99.90;;;;;;5033983;28;20498;-58
2024/02/17 01:37:54;;;;;;;8.90;6.07;;;9.60;99.90;;;;;;5032443;28;20547;-59
2024/02/17 01:40:24;;;;;;;6.93;5.20;;;9.60;99.90;;;;;;5033283;28;20477;-58
2024/02/17 01:42:52;;;;;;;6.67;4.73;;;9.60;99.90;;;;;;5032644;28;20582;-58
2024/02/17 01:45:21;;;;;;;7.73;4.60;;;9.50;99.90;;;;;;5032458;28;20466;-59
2024/02/17 01:47:49;;;;;;;4.83;4.03;;;9.50;99.90;;;;;;5028819;28;20487;-57
2024/02/17 01:50:18;;;;;;;5.73;4.17;;;9.50;99.90;;;;;;5033871;28;20497;-59
2024/02/17 01:52:47;;;;;;;7.10;3.87;;;9.50;99.90;;;;;;5030104;28;21086;-62
2024/02/17 01:55:17;;;;;;;6.60;4.47;;;9.50;99.90;;;;;;5031585;28;21167;-59
2024/02/17 01:57:45;;;;;;;5.23;3.53;;;9.50;99.90;;;;;;5032431;28;20569;-59
2024/02/17 02:00:16;;;;;;;3.73;3.27;;;9.50;99.90;;;;;;5033553;28;20833;-59
2024/02/17 02:02:46;;;;;;;3.90;3.43;;;9.40;99.90;;;;;;5028259;28;20493;-59
2024/02/17 02:05:14;;;;;;;6.40;3.10;;;9.40;99.90;;;;;;5031138;28;20467;-58
2024/02/17 02:07:43;;;;;;;4.80;2.93;;;9.40;99.90;;;;;;5031457;28;20487;-58
2024/02/17 02:10:12;;;;;;;3.40;2.97;;;9.40;99.90;;;;;;5032461;28;20489;-59
2024/02/17 02:12:40;;;;;;;3.20;2.90;;;9.30;99.90;;;;;;5031907;28;20958;-58
2024/02/17 02:15:10;;;;;;;5.10;3.10;;;9.30;99.90;;;;;;5033862;28;20482;-58
2024/02/17 02:17:39;;;;;;;5.77;3.30;;;9.30;99.90;;;;;;5033096;28;20529;-58
2024/02/17 02:20:11;;;;;;;5.67;3.00;;;9.30;99.90;;;;;;5032631;28;20541;-59
2024/02/17 02:22:41;;;;;;;3.53;2.60;;;9.20;99.90;;;;;;5034353;28;20486;-59
2024/02/17 02:25:17;;;;;;;7.73;2.87;;;9.20;99.90;;;;;;5033890;28;20574;-59
2024/02/17 02:27:46;;;;;;;4.87;2.30;;;9.20;99.90;;;;;;5034823;28;20569;-59
2024/02/17 02:30:14;;;;;;;6.27;2.90;;;9.10;99.90;;;;;;5036130;28;20491;-59
2024/02/17 02:32:42;;;;;;;5.53;3.17;;;9.10;99.90;;;;;;5034941;28;20490;-59
2024/02/17 02:35:11;;;;;;;3.63;2.50;;;9.10;99.90;;;;;;5035055;28;20473;-59
2024/02/17 02:37:39;;;;;;;4.30;2.77;;;9.10;99.90;;;;;;5035613;28;21937;-59
2024/02/17 02:40:08;;;;;;;3.33;2.33;;;9.10;99.90;;;;;;5038972;28;22173;-59
2024/02/17 02:42:36;;;;;;;2.97;2.43;;;9.00;99.90;;;;;;5039685;28;20752;-59
2024/02/17 02:45:07;;;;;;;2.50;2.20;;;9.00;99.90;;;;;;5037625;28;21068;-59
2024/02/17 02:47:35;;;;;;;2.10;1.90;;;8.90;99.90;;;;;;5037541;28;20493;-59
2024/02/17 02:50:03;;;;;;;2.57;1.80;;;8.90;99.90;;;;;;5036248;28;20495;-59
2024/02/17 02:52:32;;;;;;;2.60;1.57;;;8.90;99.90;;;;;;5037017;28;20490;-59
2024/02/17 02:55:00;;;;;;;2.60;1.70;;;8.90;99.90;;;;;;5035141;28;20466;-59
2024/02/17 02:57:28;;;;;;;2.70;1.67;;;8.90;99.90;;;;;;5035387;28;20499;-59
2024/02/17 02:59:57;;;;;;;2.13;1.60;;;8.80;99.90;;;;;;5034362;28;20511;-57
2024/02/17 03:02:26;;;;;;;1.33;1.23;;;8.90;99.90;;;;;;5031653;28;20543;-58
2024/02/17 03:04:56;;;;;;;1.10;1.00;;;8.90;99.90;;;;;;5039343;28;20573;-57
2024/02/17 03:07:25;;;;;;;3.00;1.20;;;8.90;99.90;;;;;;5038781;28;20525;-59
2024/02/17 03:09:53;;;;;;;1.73;1.47;;;8.80;99.90;;;;;;5038159;28;20598;-58
2024/02/17 03:12:21;;;;;;;1.73;1.60;;;8.80;99.90;;;;;;5036100;28;20490;-58
2024/02/17 03:14:49;;;;;;;2.70;1.40;;;8.80;99.90;;;;;;5033954;28;20474;-58
2024/02/17 03:17:17;;;;;;;1.57;1.37;;;8.70;99.90;;;;;;5036107;28;20509;-59
2024/02/17 03:19:47;;;;;;;1.53;1.33;;;8.60;99.90;;;;;;5033288;28;20557;-58
2024/02/17 03:22:15;;;;;;;1.20;1.10;;;8.60;99.90;;;;;;5036244;28;20568;-59
2024/02/17 03:24:43;;;;;;;2.63;1.10;;;8.50;99.90;;;;;;5035155;28;20532;-56
2024/02/17 03:27:11;;;;;;;1.33;1.23;;;8.40;99.90;;;;;;5034682;28;20501;-57
2024/02/17 03:29:39;;;;;;;1.20;1.10;;;8.40;99.90;;;;;;5032775;28;20595;-57
2024/02/17 03:32:08;;;;;;;1.63;1.00;;;8.30;99.90;;;;;;5033974;28;20653;-57
2024/02/17 03:34:38;;;;;;;2.30;1.40;;;8.30;99.90;;;;;;5031404;28;20554;-56
2024/02/17 03:37:09;;;;;;;1.20;1.10;;;8.30;99.90;;;;;;5031159;28;21010;-58
2024/02/17 03:39:37;;;;;;;1.17;1.00;;;8.20;99.90;;;;;;5033913;28;20481;-58
2024/02/17 03:42:06;;;;;;;1.33;1.10;;;8.20;99.90;;;;;;5035726;28;20522;-59
2024/02/17 03:44:34;;;;;;;1.57;0.77;;;8.10;99.90;;;;;;5036513;28;20859;-57
2024/02/17 03:47:02;;;;;;;1.10;0.90;;;8.10;99.90;;;;;;5035883;28;20502;-59
2024/02/17 03:49:30;;;;;;;1.20;1.00;;;8.10;99.90;;;;;;5032131;28;20889;-58
2024/02/17 03:51:58;;;;;;;1.37;0.70;;;8.00;99.90;;;;;;5031664;28;20499;-57
2024/02/17 03:54:28;;;;;;;1.10;0.80;;;8.00;99.90;;;;;;5037065;28;20484;-58
2024/02/17 03:56:56;;;;;;;1.37;0.80;;;8.00;99.90;;;;;;5034353;28;20490;-58
2024/02/17 03:59:27;;;;;;;1.07;1.00;;;8.00;99.90;;;;;;5038019;28;20495;-59
2024/02/17 04:01:56;;;;;;;1.83;1.00;;;8.00;99.90;;;;;;5035816;28;20715;-58
2024/02/17 04:04:24;;;;;;;1.40;0.90;;;8.00;99.90;;;;;;5034124;28;20821;-59
2024/02/17 04:06:52;;;;;;;2.37;1.57;;;8.00;99.90;;;;;;5032322;28;20494;-59
2024/02/17 04:09:20;;;;;;;1.33;1.07;;;8.00;99.90;;;;;;5033353;28;20475;-58
2024/02/17 04:11:51;;;;;;;1.37;1.10;;;8.00;99.90;;;;;;5034952;28;20868;-59
2024/02/17 04:14:19;;;;;;;1.30;1.10;;;7.90;99.90;;;;;;5029683;28;20472;-58
2024/02/17 04:16:47;;;;;;;2.00;1.30;;;7.90;99.90;;;;;;5032615;28;20573;-58
2024/02/17 04:19:15;;;;;;;1.40;1.30;;;7.90;99.90;;;;;;5035274;28;20462;-57
2024/02/17 04:21:45;;;;;;;1.10;1.00;;;7.90;99.90;;;;;;5034908;28;20540;-58
2024/02/17 04:24:14;;;;;;;1.40;1.30;;;7.90;99.90;;;;;;5033539;28;20553;-57
2024/02/17 04:26:42;;;;;;;1.20;1.10;;;7.90;99.90;;;;;;5028435;28;20505;-57
2024/02/17 04:29:15;;;;;;;3.77;0.70;;;7.90;99.90;;;;;;5033959;28;20498;-58
2024/02/17 04:31:44;;;;;;;1.50;0.50;;;7.80;99.90;;;;;;5030093;28;20565;-58
2024/02/17 04:34:12;;;;;;;1.07;0.50;;;7.80;99.90;;;;;;5035434;28;20553;-57
2024/02/17 04:36:40;;;;;;;0.50;0.50;;;7.80;99.90;;;;;;5029306;28;20577;-57
2024/02/17 04:39:11;;;;;;;1.23;0.67;;;7.70;99.90;;;;;;5034122;28;20976;-60
2024/02/17 04:41:39;;;;;;;1.13;0.50;;;7.60;99.90;;;;;;5033845;28;20490;-58
2024/02/17 04:44:07;;;;;;;0.40;0.40;;;7.60;99.90;;;;;;5034013;28;20495;-58
2024/02/17 04:46:36;;;;;;;0.60;0.40;;;7.60;99.90;;;;;;5034272;28;20494;-58
2024/02/17 04:49:04;;;;;;;0.87;0.87;;;7.50;99.90;;;;;;5035027;28;20489;-57
2024/02/17 04:51:32;;;;;;;1.30;1.20;;;7.50;99.90;;;;;;5033741;28;20486;-58
2024/02/17 04:54:03;;;;;;;0.73;0.70;;;7.50;99.90;;;;;;5036014;28;20477;-58
2024/02/17 04:56:31;;;;;;;3.07;0.90;;;7.40;99.90;;;;;;5033180;28;20497;-58
2024/02/17 04:58:59;;;;;;;2.03;0.80;;;7.40;99.90;;;;;;5030857;28;21031;-58
2024/02/17 05:01:27;;;;;;;1.77;0.90;;;7.30;99.90;;;;;;5030443;28;20486;-58
2024/02/17 05:03:57;;;;;;;2.83;0.80;;;7.30;99.90;;;;;;5032749;28;20470;-58
2024/02/17 05:06:25;;;;;;;1.40;0.70;;;7.30;99.90;;;;;;5034765;28;20486;-58
2024/02/17 05:08:53;;;;;;;1.93;1.03;;;7.20;99.90;;;;;;5034201;28;20471;-58
2024/02/17 05:11:22;;;;;;;0.40;0.40;;;7.20;99.90;;;;;;5033184;28;20574;-58
2024/02/17 05:13:51;;;;;;;0.60;0.60;;;7.20;99.90;;;;;;5034969;28;20898;-59
2024/02/17 05:16:19;;;;;;;2.57;0.60;;;7.20;99.90;;;;;;5030488;28;20517;-57
2024/02/17 05:18:47;;;;;;;1.40;0.40;;;7.20;99.90;;;;;;5035090;28;20471;-57
2024/02/17 05:21:18;;;;;;;2.00;0.40;;;7.10;99.90;;;;;;5031275;28;20604;-58
2024/02/17 05:23:46;;;;;;;0.40;0.40;;;7.10;99.90;;;;;;5036784;28;20470;-59
2024/02/17 05:26:14;;;;;;;0.60;0.40;;;7.10;99.90;;;;;;5035952;28;20506;-58
2024/02/17 05:28:42;;;;;;;0.50;0.40;;;7.00;99.90;;;;;;5033130;28;20864;-58
2024/02/17 05:31:27;;;;;;;0.93;0.40;;;7.10;99.90;;;;;;5030988;28;20577;-59
2024/02/17 05:33:56;;;;;;;0.80;0.40;;;7.00;99.90;;;;;;5034550;28;20481;-58
2024/02/17 05:36:26;;;;;;;1.83;0.50;;;7.00;99.90;;;;;;5035530;28;20514;-58
2024/02/17 05:38:54;;;;;;;3.10;0.53;;;7.00;99.90;;;;;;5033326;28;21148;-58
2024/02/17 05:41:22;;;;;;;1.63;0.50;;;7.00;99.90;;;;;;5032588;28;20566;-59
2024/02/17 05:43:50;;;;;;;0.90;0.60;;;7.00;99.90;;;;;;5032090;28;20505;-57
2024/02/17 05:46:19;;;;;;;1.47;0.70;;;7.00;99.90;;;;;;5033631;28;20552;-58
2024/02/17 05:48:47;;;;;;;1.03;0.70;;;7.00;99.90;;;;;;5032815;28;20565;-59
2024/02/17 05:51:15;;;;;;;2.00;0.60;;;6.90;99.90;;;;;;5034441;28;20534;-58
2024/02/17 05:53:44;;;;;;;1.83;0.67;;;6.90;99.90;;;;;;5031242;28;20470;-57
2024/02/17 05:56:12;;;;;;;1.13;0.80;;;6.90;99.90;;;;;;5033319;28;20478;-58
2024/02/17 05:58:40;;;;;;;1.80;0.70;;;6.90;99.90;;;;;;5035073;28;20493;-59
2024/02/17 06:01:08;;;;;;;1.33;0.50;;;6.80;99.90;;;;;;5030170;28;20498;-59
2024/02/17 06:03:36;;;;;;;2.70;0.80;;;6.80;99.90;;;;;;5030832;28;20471;-59
2024/02/17 06:06:05;;;;;;;2.73;0.87;;;6.80;99.90;;;;;;5031542;28;20546;-59
2024/02/17 06:08:33;;;;;;;0.73;0.60;;;6.80;99.90;;;;;;5036287;28;20483;-57
2024/02/17 06:11:03;;;;;;;1.63;0.63;;;6.80;99.90;;;;;;5033376;28;20480;-59
2024/02/17 06:13:31;;;;;;;1.03;0.80;;;6.80;99.90;;;;;;5033003;28;20499;-58
2024/02/17 06:15:59;;;;;;;2.20;0.90;;;6.80;99.90;;;;;;5031572;28;20478;-58
2024/02/17 06:21:21;;;;;;;0.87;0.50;;;6.70;99.90;;;;;;5033478;28;20486;-59
2024/02/17 06:23:51;;;;;;;2.20;0.90;;;6.80;99.90;;;;;;5034651;28;20472;-59
2024/02/17 06:26:22;;;;;;;4.00;0.63;;;6.80;99.90;;;;;;5034641;28;20491;-59
2024/02/17 06:28:51;;;;;;;1.33;0.60;;;6.80;99.90;;;;;;5031568;28;20479;-59
2024/02/17 06:31:20;;;;;;;2.60;0.90;;;6.80;99.90;;;;;;5032355;28;20855;-59
2024/02/17 06:33:48;;;;;;;3.50;0.90;;;6.80;99.90;;;;;;5031067;28;20557;-58
2024/02/17 06:36:18;;;;;;;1.37;0.77;;;6.80;99.90;;;;;;5028287;28;20479;-58
2024/02/17 06:38:50;;;;;;;2.33;0.87;;;6.80;99.90;;;;;;5035095;28;20523;-58
2024/02/17 06:41:19;;;;;;;2.30;1.03;;;6.80;99.90;;;;;;5031221;28;20576;-59
2024/02/17 06:43:50;;;;;;;2.43;0.93;;;6.90;99.90;;;;;;5021118;28;20470;-58
2024/02/17 06:46:18;;;;;;;3.70;1.30;;;6.90;99.90;;;;;;5034520;28;20540;-58
2024/02/17 06:48:49;;;;;;;3.43;1.27;;;6.90;99.90;;;;;;5035029;28;20463;-58
2024/02/17 06:51:18;;;;;;;3.30;0.83;;;6.90;99.90;;;;;;5033588;28;20567;-59
2024/02/17 06:53:46;;;;;;;4.33;1.13;;;7.00;99.90;;;;;;5031874;28;20490;-58
2024/02/17 06:56:14;;;;;;;2.33;1.40;;;6.90;99.90;;;;;;5031777;28;20561;-58
2024/02/17 06:58:42;;;;;;;2.27;0.80;;;6.90;99.90;;;;;;5034356;28;20475;-57
2024/02/17 07:01:11;;;;;;;4.90;1.30;;;6.90;99.90;;;;;;5026055;28;20478;-58
2024/02/17 07:03:39;;;;;;;6.30;1.33;;;7.00;99.90;;;;;;5023327;28;20467;-58
2024/02/17 07:06:08;;;;;;;7.97;1.40;;;7.00;99.90;;;;;;5022915;28;20497;-58
2024/02/17 07:08:36;;;;;;;7.80;1.50;;;7.00;99.90;;;;;;5031319;28;20524;-58
2024/02/17 07:11:04;;;;;;;5.30;1.50;;;6.90;99.90;;;;;;5029074;28;20782;-58
2024/02/17 07:13:32;;;;;;;6.10;2.27;;;6.90;99.90;;;;;;5034817;28;20498;-58
2024/02/17 07:16:00;;;;;;;6.33;1.80;;;7.00;99.90;;;;;;5036518;28;20593;-57
2024/02/17 07:18:30;;;;;;;2.87;1.50;;;7.00;99.90;;;;;;5030370;28;20516;-57
2024/02/17 07:20:59;;;;;;;5.23;1.70;;;7.00;99.90;;;;;;5035798;28;20543;-58
2024/02/17 07:23:30;;;;;;;4.63;1.50;;;7.00;99.90;;;;;;5038276;28;20900;-58
2024/02/17 07:25:58;;;;;;;5.70;1.60;;;7.00;99.90;;;;;;5035055;28;20470;-58
2024/02/17 07:28:26;;;;;;;6.70;1.83;;;7.00;99.90;;;;;;5035027;28;21094;-58
2024/02/17 07:30:55;;;;;;;7.27;1.57;;;7.00;99.90;;;;;;5035780;28;20706;-58
2024/02/17 07:33:23;;;;;;;5.37;2.17;;;7.10;99.90;;;;;;5035773;28;20498;-58
2024/02/17 07:35:52;;;;;;;9.37;1.90;;;7.00;99.90;;;;;;5036139;28;20576;-58
2024/02/17 07:38:20;;;;;;;5.70;1.83;;;7.10;99.90;;;;;;5034001;28;20934;-58
2024/02/17 07:40:49;;;;;;;6.13;1.90;;;7.10;99.90;;;;;;5027274;28;20922;-58
2024/02/17 07:43:19;;;;;;;5.37;1.77;;;7.10;99.90;;;;;;5037644;28;20546;-57
2024/02/17 07:45:48;;;;;;;6.37;1.93;;;7.10;99.90;;;;;;5032626;28;20494;-57
2024/02/17 07:48:18;;;;;;;8.87;1.53;;;7.10;99.90;;;;;;5030425;28;20502;-58
2024/02/17 07:50:47;;;;;;;8.10;2.27;;;7.10;99.90;;;;;;5034033;28;21684;-58
2024/02/17 07:53:16;;;;;;;6.93;1.73;;;7.10;99.90;;;;;;5035751;28;20564;-59
2024/02/17 07:55:44;;;;;;;9.57;2.87;;;7.10;99.90;;;;;;5024030;28;20601;-58
2024/02/17 07:58:12;;;;;;;7.27;2.13;;;7.10;99.90;;;;;;5028803;28;20495;-62
2024/02/17 08:00:41;;;;;;;5.17;1.97;;;7.10;99.90;;;;;;5030469;28;21030;-61
2024/02/17 08:03:09;;;;;;;5.83;1.90;;;7.10;99.90;;;;;;5033546;28;20472;-62
2024/02/17 08:05:38;;;;;;;9.47;2.00;;;7.20;99.90;;;;;;5035126;28;20472;-61
2024/02/17 08:08:06;;;;;;;4.40;2.10;;;7.20;99.90;;;;;;5030563;28;20494;-61
2024/02/17 08:10:36;;;;;;;9.53;1.97;;;7.20;99.90;;;;;;5036227;28;20567;-62
2024/02/17 08:13:05;;;;;;;6.53;2.63;;;7.20;99.90;;;;;;5034993;28;20565;-61
2024/02/17 08:15:33;;;;;;;4.97;1.50;;;7.10;99.90;;;;;;5033808;28;20478;-58
2024/02/17 08:18:01;;;;;;;4.40;1.60;;;7.10;99.90;;;;;;5030266;28;20501;-61
2024/02/17 08:20:30;;;;;;;7.30;2.07;;;7.10;99.90;;;;;;5033807;28;20485;-59
2024/02/17 08:22:58;;;;;;;9.10;1.93;;;7.20;99.90;;;;;;5031986;28;20988;-58
2024/02/17 08:25:26;;;;;;;10.47;1.90;;;7.20;99.90;;;;;;5035974;28;20945;-58
2024/02/17 08:27:56;;;;;;;8.03;1.90;;;7.20;99.90;;;;;;5038666;28;20506;-58
2024/02/17 08:30:24;;;;;;;5.57;1.70;;;7.20;99.90;;;;;;5036010;28;20462;-60
2024/02/17 08:32:56;;;;;;;5.87;2.03;;;7.20;99.90;;;;;;5034480;28;20494;-58
2024/02/17 08:35:24;;;;;;;3.67;1.63;;;7.20;99.90;;;;;;5025060;28;20475;-58
2024/02/17 08:37:52;;;;;;;7.27;1.97;;;7.10;99.90;;;;;;5034652;28;20493;-57
2024/02/17 08:40:22;;;;;;;6.80;2.00;;;7.10;99.90;;;;;;5028509;28;20532;-58
2024/02/17 08:42:50;;;;;;;5.30;1.53;;;7.10;99.90;;;;;;5026653;28;20687;-57
2024/02/17 08:45:19;;;;;;;7.93;1.60;;;7.10;99.90;;;;;;5029051;28;21336;-58
2024/02/17 08:47:48;;;;;;;6.20;1.50;;;7.20;99.90;;;;;;5028120;28;20498;-59
2024/02/17 08:50:18;;;;;;;11.20;2.47;;;7.20;99.90;;;;;;5031381;28;20479;-59
2024/02/17 08:52:46;;;;;;;9.37;2.10;;;7.20;99.90;;;;;;5025133;28;20574;-59
2024/02/17 08:55:14;;;;;;;5.73;1.50;;;7.20;99.90;;;;;;5025996;28;20576;-58
2024/02/17 08:57:42;;;;;;;6.20;2.40;;;7.20;99.90;;;;;;5028142;28;20561;-57
2024/02/17 09:00:12;;;;;;;7.50;2.13;;;7.30;99.90;;;;;;5025866;28;20467;-58
2024/02/17 09:02:41;;;;;;;9.93;1.90;;;7.30;99.90;;;;;;5021506;28;20495;-60
2024/02/17 09:05:09;;;;;;;3.87;1.87;;;7.30;99.90;;;;;;5029776;28;20566;-59
2024/02/17 09:07:37;;;;;;;7.90;1.87;;;7.40;99.90;;;;;;5027336;28;20494;-58
2024/02/17 09:10:08;;;;;;;7.50;2.30;;;7.40;99.90;;;;;;5001923;28;20561;-59
2024/02/17 09:12:36;;;;;;;7.40;2.20;;;7.40;99.90;;;;;;5014685;28;20487;-58
2024/02/17 09:15:05;;;;;;;6.90;2.17;;;7.40;99.90;;;;;;5023314;28;21035;-58
2024/02/17 09:17:33;;;;;;;8.40;2.70;;;7.40;99.90;;;;;;5015267;28;20494;-61
2024/02/17 09:20:04;;;;;;;5.20;1.77;;;7.40;99.90;;;;;;5019906;28;20483;-57
2024/02/17 09:22:32;;;;;;;6.07;2.30;;;7.40;99.90;;;;;;5015118;28;21155;-58
2024/02/17 09:25:00;;;;;;;5.70;1.80;;;7.40;99.90;;;;;;5016342;28;20973;-58
2024/02/17 09:27:28;;;;;;;4.63;1.80;;;7.40;99.90;;;;;;5021953;28;20503;-58
2024/02/17 09:29:56;;;;;;;8.03;3.27;;;7.40;99.90;;;;;;5022912;28;20875;-57
2024/02/17 09:32:24;;;;;;;10.27;2.27;;;7.40;99.90;;;;;;5013916;28;21172;-57
2024/02/17 09:34:54;;;;;;;6.90;2.50;;;7.40;99.90;;;;;;5017874;28;20569;-58
2024/02/17 09:37:24;;;;;;;7.27;2.20;;;7.40;99.90;;;;;;5024179;28;20530;-58
2024/02/17 09:39:52;;;;;;;8.83;2.80;;;7.40;99.90;;;;;;5019154;28;20561;-59
2024/02/17 09:42:20;;;;;;;6.17;2.27;;;7.40;99.90;;;;;;5026182;28;20493;-59
2024/02/17 09:44:48;;;;;;;9.70;2.10;;;7.40;99.90;;;;;;5014564;28;20470;-59
2024/02/17 09:47:17;;;;;;;6.37;2.07;;;7.40;99.90;;;;;;5015281;28;20519;-57
2024/02/17 09:49:46;;;;;;;8.63;2.07;;;7.40;99.90;;;;;;5022448;28;20462;-58
2024/02/17 09:52:17;;;;;;;6.00;1.93;;;7.50;99.90;;;;;;5022547;28;20596;-58
2024/02/17 09:54:47;;;;;;;11.13;1.97;;;7.50;99.90;;;;;;5027775;28;20499;-57
2024/02/17 09:57:17;;;;;;;10.80;2.40;;;7.60;99.90;;;;;;5022807;28;20494;-57
2024/02/17 09:59:45;;;;;;;8.70;2.13;;;7.60;99.90;;;;;;5027667;28;20532;-58
2024/02/17 10:02:13;;;;;;;6.37;2.30;;;7.60;99.90;;;;;;5029338;28;20572;-58
2024/02/17 10:04:53;;;;;;;9.63;2.43;;;7.60;99.90;;;;;;5028263;28;20470;-59
2024/02/17 10:07:22;;;;;;;5.70;1.87;;;7.60;99.90;;;;;;5031234;28;20588;-58
2024/02/17 10:09:51;;;;;;;8.33;2.60;;;7.70;99.90;;;;;;5028735;28;20549;-63
2024/02/17 10:12:19;;;;;;;5.87;2.13;;;7.70;99.90;;;;;;5029757;28;20487;-59
2024/02/17 10:14:52;;;;;;;8.10;2.27;;;7.70;99.90;;;;;;5028689;28;20486;-58
2024/02/17 10:17:23;;;;;;;12.13;2.90;;;7.70;99.90;;;;;;5027832;28;20573;-58
2024/02/17 10:19:54;;;;;;;7.90;2.37;;;7.70;99.90;;;;;;5031989;28;20478;-58
2024/02/17 10:22:23;;;;;;;8.40;2.37;;;7.80;99.90;;;;;;5024759;28;20630;-58
2024/02/17 10:24:59;;;;;;;8.03;2.73;;;7.90;99.90;;;;;;5028312;28;20559;-57
2024/02/17 10:27:28;;;;;;;8.00;2.40;;;7.90;99.90;;;;;;5031466;28;20525;-58
2024/02/17 10:30:07;;;;;;;11.60;2.30;;;8.00;99.90;;;;;;5031653;28;20475;-59
2024/02/17 10:32:35;;;;;;;10.87;2.57;;;8.10;99.90;;;;;;5032302;28;21059;-59
2024/02/17 10:35:06;;;;;;;9.43;2.40;;;8.10;99.90;;;;;;5030590;28;20500;-59
2024/02/17 10:37:35;;;;;;;16.33;3.13;;;8.10;99.90;;;;;;5031691;28;20494;-59
2024/02/17 10:40:06;;;;;;;5.77;1.93;;;8.10;99.90;;;;;;5029192;28;22454;-58
2024/02/17 10:42:34;;;;;;;6.80;2.10;;;8.10;99.90;;;;;;5027856;28;20515;-59
2024/02/17 10:45:04;;;;;;;11.63;3.00;;;8.10;99.90;;;;;;5024056;28;20952;-58
2024/02/17 10:47:36;;;;;;;8.70;2.80;;;8.10;99.90;;;;;;5035201;28;21077;-59
2024/02/17 10:50:12;;;;;;;9.23;2.50;;;8.10;99.90;;;;;;5032882;28;20840;-58
2024/02/17 10:52:45;;;;;;;8.17;2.97;;;8.10;99.90;;;;;;5037631;28;20586;-58
2024/02/17 10:55:16;;;;;;;13.50;2.73;;;8.10;99.90;;;;;;5031516;28;20940;-58
2024/02/17 10:57:53;;;;;;;10.83;2.40;;;8.10;99.90;;;;;;5034980;28;20844;-57
2024/02/17 11:00:22;;;;;;;7.33;2.60;;;8.10;99.90;;;;;;5034211;28;21013;-58
2024/02/17 11:02:54;;;;;;;10.90;2.73;;;8.10;99.90;;;;;;5035439;28;20482;-58
2024/02/17 11:05:23;;;;;;;10.70;2.47;;;8.20;99.90;;;;;;5033099;28;20454;-58
2024/02/17 11:07:53;;;;;;;9.47;3.30;;;8.30;99.90;;;;;;5035616;28;20490;-58
2024/02/17 11:10:28;;;;;;;9.50;2.43;;;8.40;99.90;;;;;;5036735;28;20558;-58
2024/02/17 11:12:58;;;;;;;7.17;4.43;;;8.50;99.90;;;;;;5031512;28;21085;-58
2024/02/17 11:15:27;;;;;;;9.63;2.13;;;8.50;99.90;;;;;;5034459;28;20543;-58
2024/02/17 11:17:59;;;;;;;5.00;2.17;;;8.60;99.90;;;;;;5025598;28;22342;-58
2024/02/17 11:20:28;;;;;;;6.77;2.40;;;8.60;99.90;;;;;;5034552;28;21030;-58
2024/02/17 11:22:58;;;;;;;9.17;2.70;;;8.50;99.90;;;;;;5032161;28;20529;-57
2024/02/17 11:25:33;;;;;;;8.10;2.47;;;8.50;99.90;;;;;;5034501;28;20498;-58
2024/02/17 11:28:05;;;;;;;10.47;2.50;;;8.50;99.90;;;;;;5030726;28;20597;-59
2024/02/17 11:30:48;;;;;;;9.10;2.60;;;8.40;99.90;;;;;;5033647;28;20474;-59
2024/02/17 11:33:18;;;;;;;8.47;2.00;;;8.40;99.90;;;;;;5030913;28;20598;-59
2024/02/17 11:35:47;;;;;;;10.83;2.20;;;8.40;99.90;;;;;;5037281;28;20493;-58
2024/02/17 11:38:24;;;;;;;7.90;2.67;;;8.50;99.90;;;;;;5030385;28;20941;-59
2024/02/17 11:40:55;;;;;;;10.50;2.20;;;8.50;99.90;;;;;;5032917;28;21386;-59
2024/02/17 11:43:24;;;;;;;11.03;2.70;;;8.50;99.90;;;;;;5034077;28;20503;-58
2024/02/17 11:45:52;;;;;;;9.00;2.10;;;8.50;99.90;;;;;;5034116;28;20470;-57
2024/02/17 11:48:21;;;;;;;11.03;2.97;;;8.70;99.90;;;;;;5025084;28;20486;-59
2024/02/17 11:50:49;;;;;;;6.30;2.40;;;8.80;99.90;;;;;;5031095;28;20485;-59
2024/02/17 11:53:26;;;;;;;5.93;1.90;;;9.00;99.90;;;;;;5037602;28;20471;-59
2024/02/17 11:56:11;;;;;;;6.27;2.20;;;9.00;99.90;;;;;;5034438;28;20582;-59
2024/02/17 11:58:39;;;;;;;9.37;2.83;;;8.90;99.90;;;;;;5026905;28;20563;-59
2024/02/17 12:01:08;;;;;;;6.50;2.10;;;8.90;99.90;;;;;;5033317;28;20467;-59
2024/02/17 12:03:37;;;;;;;7.50;2.23;;;8.80;99.90;;;;;;5033098;28;20521;-59
2024/02/17 12:06:06;;;;;;;9.77;3.83;;;8.80;99.90;;;;;;5029376;28;20462;-59
2024/02/17 12:08:35;;;;;;;9.60;2.77;;;8.80;99.90;;;;;;5033665;28;20649;-59
2024/02/17 12:11:04;;;;;;;9.40;2.60;;;8.80;99.90;;;;;;5033291;28;21800;-60
2024/02/17 12:13:33;;;;;;;10.17;2.43;;;8.80;99.90;;;;;;5034733;28;20817;-58
2024/02/17 12:16:05;;;;;;;6.97;2.97;;;9.00;99.90;;;;;;5032299;28;20494;-59
2024/02/17 12:18:36;;;;;;;6.57;3.00;;;9.30;99.90;;;;;;5033791;28;20555;-59
2024/02/17 12:21:06;;;;;;;6.10;1.90;;;9.90;99.90;;;;;;5028915;28;20498;-59
2024/02/17 12:23:36;;;;;;;7.83;2.20;;;10.10;99.90;;;;;;5032493;28;20558;-59
2024/02/17 12:26:04;;;;;;;8.00;2.00;;;10.00;99.90;;;;;;5028937;28;22575;-59
2024/02/17 12:28:48;;;;;;;6.80;2.50;;;9.90;99.90;;;;;;5032130;28;20572;-59
2024/02/17 12:31:18;;;;;;;10.47;2.70;;;9.90;99.90;;;;;;5029434;28;20571;-59
2024/02/17 12:33:47;;;;;;;14.37;4.93;;;9.70;99.90;;;;;;5025735;28;20502;-58
2024/02/17 12:36:17;;;;;;;9.53;2.97;;;9.50;99.90;;;;;;5023139;28;20483;-58
2024/02/17 12:38:45;;;;;;;9.00;2.90;;;9.40;99.90;;;;;;5025952;28;20489;-58
2024/02/17 12:41:16;;;;;;;8.97;3.10;;;9.30;99.90;;;;;;5026480;28;20555;-58
2024/02/17 12:43:51;;;;;;;6.90;2.87;;;9.20;99.90;;;;;;5021355;28;20983;-58
2024/02/17 12:46:26;;;;;;;8.80;2.60;;;9.20;99.90;;;;;;5031939;28;20494;-58
2024/02/17 12:48:54;;;;;;;10.73;2.67;;;9.30;99.90;;;;;;5030470;28;20968;-58
2024/02/17 12:51:24;;;;;;;6.93;1.90;;;9.90;99.90;;;;;;5028294;28;20483;-57
2024/02/17 12:53:52;;;;;;;11.10;2.40;;;10.20;99.90;;;;;;5025765;28;20475;-58
2024/02/17 12:56:21;;;;;;;7.43;2.20;;;10.30;99.90;;;;;;5026787;28;21004;-58
2024/02/17 12:58:54;;;;;;;6.30;1.93;;;10.80;99.90;;;;;;5025495;28;20477;-58
2024/02/17 13:01:22;;;;;;;9.67;2.30;;;11.10;99.90;;;;;;5023859;28;20494;-58
2024/02/17 13:03:50;;;;;;;14.23;3.80;;;10.90;99.90;;;;;;5027992;28;20473;-57
2024/02/17 13:06:18;;;;;;;5.40;1.90;;;10.60;99.90;;;;;;5025039;28;20525;-58
2024/02/17 13:08:47;;;;;;;9.30;2.50;;;10.30;99.90;;;;;;5024139;28;20495;-61